sensor_id;sensor_type;location;lat;lon;timestamp;P1;durP1;ratioP1;P2;durP2;ratioP2
16660;SDS011;8444;52.012;5.048;2023-05-07T00:02:22;36.58;;;21.60;;
16660;SDS011;8444;52.012;5.048;2023-05-07T00:04:48;33.72;;;20.73;;
16660;SDS011;8444;52.012;5.048;2023-05-07T00:07:13;32.55;;;21.83;;
16660;SDS011;8444;52.012;5.048;2023-05-07T00:09:38;30.20;;;21.98;;
16660;SDS011;8444;52.012;5.048;2023-05-07T00:12:04;27.23;;;19.70;;
16660;SDS011;8444;52.012;5.048;2023-05-07T00:14:30;31.60;;;19.98;;
16660;SDS011;8444;52.012;5.048;2023-05-07T00:16:55;27.30;;;20.02;;
16660;SDS011;8444;52.012;5.048;2023-05-07T00:19:20;29.55;;;18.60;;
16660;SDS011;8444;52.012;5.048;2023-05-07T00:21:45;30.65;;;20.83;;
16660;SDS011;8444;52.012;5.048;2023-05-07T00:24:11;28.88;;;19.17;;
16660;SDS011;8444;52.012;5.048;2023-05-07T00:26:36;23.92;;;17.42;;
16660;SDS011;8444;52.012;5.048;2023-05-07T00:29:01;24.95;;;19.02;;
16660;SDS011;8444;52.012;5.048;2023-05-07T00:31:26;25.77;;;18.95;;
16660;SDS011;8444;52.012;5.048;2023-05-07T00:33:52;26.40;;;18.23;;
16660;SDS011;8444;52.012;5.048;2023-05-07T00:36:17;22.73;;;17.15;;
16660;SDS011;8444;52.012;5.048;2023-05-07T00:38:42;22.48;;;17.30;;
16660;SDS011;8444;52.012;5.048;2023-05-07T00:41:07;22.02;;;17.00;;
16660;SDS011;8444;52.012;5.048;2023-05-07T00:43:32;21.17;;;16.17;;
16660;SDS011;8444;52.012;5.048;2023-05-07T00:45:58;23.00;;;16.30;;
16660;SDS011;8444;52.012;5.048;2023-05-07T00:48:23;22.52;;;16.33;;
16660;SDS011;8444;52.012;5.048;2023-05-07T00:50:49;20.55;;;16.38;;
16660;SDS011;8444;52.012;5.048;2023-05-07T00:53:14;19.48;;;16.20;;
16660;SDS011;8444;52.012;5.048;2023-05-07T00:55:39;19.52;;;15.02;;
16660;SDS011;8444;52.012;5.048;2023-05-07T00:58:05;20.48;;;15.70;;
16660;SDS011;8444;52.012;5.048;2023-05-07T01:00:30;19.50;;;15.63;;
16660;SDS011;8444;52.012;5.048;2023-05-07T01:02:56;19.85;;;14.70;;
16660;SDS011;8444;52.012;5.048;2023-05-07T01:05:21;17.90;;;14.57;;
16660;SDS011;8444;52.012;5.048;2023-05-07T01:07:47;18.10;;;14.65;;
16660;SDS011;8444;52.012;5.048;2023-05-07T01:10:13;18.83;;;14.35;;
16660;SDS011;8444;52.012;5.048;2023-05-07T01:12:39;19.30;;;14.68;;
16660;SDS011;8444;52.012;5.048;2023-05-07T01:15:05;19.08;;;14.73;;
16660;SDS011;8444;52.012;5.048;2023-05-07T01:17:37;18.98;;;15.23;;
16660;SDS011;8444;52.012;5.048;2023-05-07T01:20:06;17.65;;;14.95;;
16660;SDS011;8444;52.012;5.048;2023-05-07T01:22:40;20.27;;;15.10;;
16660;SDS011;8444;52.012;5.048;2023-05-07T01:25:06;18.23;;;15.25;;
16660;SDS011;8444;52.012;5.048;2023-05-07T01:27:32;20.17;;;14.38;;
16660;SDS011;8444;52.012;5.048;2023-05-07T01:29:58;21.05;;;15.20;;
16660;SDS011;8444;52.012;5.048;2023-05-07T01:32:28;19.55;;;14.02;;
16660;SDS011;8444;52.012;5.048;2023-05-07T01:34:54;21.58;;;15.45;;
16660;SDS011;8444;52.012;5.048;2023-05-07T01:37:20;18.77;;;14.40;;
16660;SDS011;8444;52.012;5.048;2023-05-07T01:39:46;21.88;;;15.10;;
16660;SDS011;8444;52.012;5.048;2023-05-07T01:42:12;16.95;;;13.90;;
16660;SDS011;8444;52.012;5.048;2023-05-07T01:44:37;16.60;;;14.10;;
16660;SDS011;8444;52.012;5.048;2023-05-07T01:47:02;17.08;;;13.95;;
16660;SDS011;8444;52.012;5.048;2023-05-07T01:49:28;21.88;;;15.63;;
16660;SDS011;8444;52.012;5.048;2023-05-07T01:51:53;21.27;;;15.00;;
16660;SDS011;8444;52.012;5.048;2023-05-07T01:54:18;19.00;;;15.60;;
16660;SDS011;8444;52.012;5.048;2023-05-07T01:56:45;16.88;;;14.85;;
16660;SDS011;8444;52.012;5.048;2023-05-07T01:59:12;16.77;;;14.13;;
16660;SDS011;8444;52.012;5.048;2023-05-07T02:01:38;18.15;;;13.35;;
16660;SDS011;8444;52.012;5.048;2023-05-07T02:04:03;20.75;;;14.13;;
16660;SDS011;8444;52.012;5.048;2023-05-07T02:06:28;17.27;;;14.18;;
16660;SDS011;8444;52.012;5.048;2023-05-07T02:08:54;19.38;;;15.75;;
16660;SDS011;8444;52.012;5.048;2023-05-07T02:11:19;16.83;;;14.75;;
16660;SDS011;8444;52.012;5.048;2023-05-07T02:13:45;18.20;;;14.25;;
16660;SDS011;8444;52.012;5.048;2023-05-07T02:16:10;17.38;;;13.30;;
16660;SDS011;8444;52.012;5.048;2023-05-07T02:18:35;18.80;;;14.73;;
16660;SDS011;8444;52.012;5.048;2023-05-07T02:21:01;18.20;;;13.95;;
16660;SDS011;8444;52.012;5.048;2023-05-07T02:23:26;16.02;;;12.60;;
16660;SDS011;8444;52.012;5.048;2023-05-07T02:25:51;18.40;;;14.88;;
16660;SDS011;8444;52.012;5.048;2023-05-07T02:28:16;14.57;;;12.48;;
16660;SDS011;8444;52.012;5.048;2023-05-07T02:30:41;17.50;;;13.57;;
16660;SDS011;8444;52.012;5.048;2023-05-07T02:33:07;18.75;;;14.45;;
16660;SDS011;8444;52.012;5.048;2023-05-07T02:35:33;18.63;;;13.70;;
16660;SDS011;8444;52.012;5.048;2023-05-07T02:37:58;18.73;;;14.05;;
16660;SDS011;8444;52.012;5.048;2023-05-07T02:40:23;17.98;;;13.40;;
16660;SDS011;8444;52.012;5.048;2023-05-07T02:42:49;16.13;;;13.02;;
16660;SDS011;8444;52.012;5.048;2023-05-07T02:45:14;16.00;;;12.75;;
16660;SDS011;8444;52.012;5.048;2023-05-07T02:47:39;18.52;;;14.13;;
16660;SDS011;8444;52.012;5.048;2023-05-07T02:50:05;19.67;;;14.05;;
16660;SDS011;8444;52.012;5.048;2023-05-07T02:52:30;18.52;;;13.82;;
16660;SDS011;8444;52.012;5.048;2023-05-07T02:54:56;17.17;;;13.45;;
16660;SDS011;8444;52.012;5.048;2023-05-07T02:57:21;18.40;;;13.20;;
16660;SDS011;8444;52.012;5.048;2023-05-07T02:59:46;20.20;;;13.65;;
16660;SDS011;8444;52.012;5.048;2023-05-07T03:02:11;15.75;;;12.95;;
16660;SDS011;8444;52.012;5.048;2023-05-07T03:04:36;17.05;;;13.80;;
16660;SDS011;8444;52.012;5.048;2023-05-07T03:07:01;16.42;;;13.18;;
16660;SDS011;8444;52.012;5.048;2023-05-07T03:09:27;19.40;;;14.07;;
16660;SDS011;8444;52.012;5.048;2023-05-07T03:11:52;20.05;;;14.98;;
16660;SDS011;8444;52.012;5.048;2023-05-07T03:14:17;16.92;;;14.18;;
16660;SDS011;8444;52.012;5.048;2023-05-07T03:16:42;18.48;;;13.85;;
16660;SDS011;8444;52.012;5.048;2023-05-07T03:19:08;22.23;;;14.73;;
16660;SDS011;8444;52.012;5.048;2023-05-07T03:21:33;15.95;;;13.15;;
16660;SDS011;8444;52.012;5.048;2023-05-07T03:23:59;19.88;;;15.25;;
16660;SDS011;8444;52.012;5.048;2023-05-07T03:26:24;20.75;;;15.27;;
16660;SDS011;8444;52.012;5.048;2023-05-07T03:28:50;22.83;;;14.65;;
16660;SDS011;8444;52.012;5.048;2023-05-07T03:31:15;23.40;;;16.00;;
16660;SDS011;8444;52.012;5.048;2023-05-07T03:33:53;25.15;;;16.33;;
16660;SDS011;8444;52.012;5.048;2023-05-07T03:36:19;23.25;;;16.65;;
16660;SDS011;8444;52.012;5.048;2023-05-07T03:38:44;22.08;;;16.65;;
16660;SDS011;8444;52.012;5.048;2023-05-07T03:41:10;21.15;;;15.88;;
16660;SDS011;8444;52.012;5.048;2023-05-07T03:43:35;22.63;;;17.58;;
16660;SDS011;8444;52.012;5.048;2023-05-07T03:46:00;23.35;;;18.27;;
16660;SDS011;8444;52.012;5.048;2023-05-07T03:48:25;25.02;;;17.25;;
16660;SDS011;8444;52.012;5.048;2023-05-07T03:50:51;23.50;;;17.67;;
16660;SDS011;8444;52.012;5.048;2023-05-07T03:53:16;23.20;;;16.98;;
16660;SDS011;8444;52.012;5.048;2023-05-07T03:55:41;25.00;;;17.90;;
16660;SDS011;8444;52.012;5.048;2023-05-07T03:58:06;25.85;;;17.05;;
16660;SDS011;8444;52.012;5.048;2023-05-07T04:00:31;24.48;;;15.82;;
16660;SDS011;8444;52.012;5.048;2023-05-07T04:03:03;21.02;;;15.48;;
16660;SDS011;8444;52.012;5.048;2023-05-07T04:05:29;20.05;;;15.45;;
16660;SDS011;8444;52.012;5.048;2023-05-07T04:07:54;20.67;;;15.63;;
16660;SDS011;8444;52.012;5.048;2023-05-07T04:10:20;19.42;;;15.15;;
16660;SDS011;8444;52.012;5.048;2023-05-07T04:12:45;24.88;;;15.05;;
16660;SDS011;8444;52.012;5.048;2023-05-07T04:15:10;20.77;;;15.63;;
16660;SDS011;8444;52.012;5.048;2023-05-07T04:17:35;23.38;;;17.05;;
16660;SDS011;8444;52.012;5.048;2023-05-07T04:20:00;20.52;;;15.95;;
16660;SDS011;8444;52.012;5.048;2023-05-07T04:22:26;20.27;;;16.10;;
16660;SDS011;8444;52.012;5.048;2023-05-07T04:24:51;20.23;;;15.88;;
16660;SDS011;8444;52.012;5.048;2023-05-07T04:27:16;22.70;;;17.13;;
16660;SDS011;8444;52.012;5.048;2023-05-07T04:29:42;21.77;;;16.10;;
16660;SDS011;8444;52.012;5.048;2023-05-07T04:32:08;22.30;;;17.77;;
16660;SDS011;8444;52.012;5.048;2023-05-07T04:34:34;23.23;;;17.20;;
16660;SDS011;8444;52.012;5.048;2023-05-07T04:36:59;24.90;;;17.60;;
16660;SDS011;8444;52.012;5.048;2023-05-07T04:39:24;24.65;;;17.45;;
16660;SDS011;8444;52.012;5.048;2023-05-07T04:41:49;20.75;;;16.35;;
16660;SDS011;8444;52.012;5.048;2023-05-07T04:44:15;22.20;;;17.00;;
16660;SDS011;8444;52.012;5.048;2023-05-07T04:46:40;24.00;;;16.85;;
16660;SDS011;8444;52.012;5.048;2023-05-07T04:49:05;25.98;;;18.73;;
16660;SDS011;8444;52.012;5.048;2023-05-07T04:51:30;24.35;;;18.10;;
16660;SDS011;8444;52.012;5.048;2023-05-07T04:53:57;25.67;;;18.13;;
16660;SDS011;8444;52.012;5.048;2023-05-07T04:56:22;31.88;;;21.60;;
16660;SDS011;8444;52.012;5.048;2023-05-07T04:58:48;27.02;;;18.65;;
16660;SDS011;8444;52.012;5.048;2023-05-07T05:01:13;26.58;;;18.77;;
16660;SDS011;8444;52.012;5.048;2023-05-07T05:03:38;25.08;;;17.98;;
16660;SDS011;8444;52.012;5.048;2023-05-07T05:06:04;24.52;;;18.75;;
16660;SDS011;8444;52.012;5.048;2023-05-07T05:08:29;23.83;;;18.58;;
16660;SDS011;8444;52.012;5.048;2023-05-07T05:10:55;24.98;;;18.75;;
16660;SDS011;8444;52.012;5.048;2023-05-07T05:13:20;24.20;;;18.88;;
16660;SDS011;8444;52.012;5.048;2023-05-07T05:15:46;25.85;;;18.55;;
16660;SDS011;8444;52.012;5.048;2023-05-07T05:18:11;25.58;;;19.70;;
16660;SDS011;8444;52.012;5.048;2023-05-07T05:20:36;21.92;;;17.40;;
16660;SDS011;8444;52.012;5.048;2023-05-07T05:23:01;28.88;;;18.98;;
16660;SDS011;8444;52.012;5.048;2023-05-07T05:25:26;22.55;;;17.90;;
16660;SDS011;8444;52.012;5.048;2023-05-07T05:27:53;23.05;;;18.27;;
16660;SDS011;8444;52.012;5.048;2023-05-07T05:30:18;24.83;;;18.65;;
16660;SDS011;8444;52.012;5.048;2023-05-07T05:32:43;24.30;;;17.55;;
16660;SDS011;8444;52.012;5.048;2023-05-07T05:35:08;22.50;;;16.73;;
16660;SDS011;8444;52.012;5.048;2023-05-07T05:37:34;23.38;;;17.48;;
16660;SDS011;8444;52.012;5.048;2023-05-07T05:39:59;22.00;;;16.60;;
16660;SDS011;8444;52.012;5.048;2023-05-07T05:42:24;22.95;;;17.23;;
16660;SDS011;8444;52.012;5.048;2023-05-07T05:44:49;19.63;;;16.30;;
16660;SDS011;8444;52.012;5.048;2023-05-07T05:47:15;19.00;;;15.55;;
16660;SDS011;8444;52.012;5.048;2023-05-07T05:49:40;19.52;;;16.38;;
16660;SDS011;8444;52.012;5.048;2023-05-07T05:52:05;23.00;;;17.05;;
16660;SDS011;8444;52.012;5.048;2023-05-07T05:54:30;18.65;;;16.00;;
16660;SDS011;8444;52.012;5.048;2023-05-07T05:56:55;21.65;;;17.08;;
16660;SDS011;8444;52.012;5.048;2023-05-07T05:59:21;19.90;;;15.13;;
16660;SDS011;8444;52.012;5.048;2023-05-07T06:04:16;21.00;;;16.63;;
16660;SDS011;8444;52.012;5.048;2023-05-07T06:06:41;19.63;;;14.73;;
16660;SDS011;8444;52.012;5.048;2023-05-07T06:09:06;22.17;;;15.38;;
16660;SDS011;8444;52.012;5.048;2023-05-07T06:11:31;19.77;;;15.65;;
16660;SDS011;8444;52.012;5.048;2023-05-07T06:13:57;19.52;;;16.30;;
16660;SDS011;8444;52.012;5.048;2023-05-07T06:16:22;20.67;;;15.75;;
16660;SDS011;8444;52.012;5.048;2023-05-07T06:18:49;20.02;;;15.48;;
16660;SDS011;8444;52.012;5.048;2023-05-07T06:21:14;17.38;;;14.27;;
16660;SDS011;8444;52.012;5.048;2023-05-07T06:23:40;19.45;;;16.15;;
16660;SDS011;8444;52.012;5.048;2023-05-07T06:26:06;18.60;;;14.90;;
16660;SDS011;8444;52.012;5.048;2023-05-07T06:28:31;20.52;;;15.57;;
16660;SDS011;8444;52.012;5.048;2023-05-07T06:31:13;20.02;;;15.02;;
16660;SDS011;8444;52.012;5.048;2023-05-07T06:33:39;19.13;;;14.02;;
16660;SDS011;8444;52.012;5.048;2023-05-07T06:36:05;19.15;;;15.02;;
16660;SDS011;8444;52.012;5.048;2023-05-07T06:38:30;23.63;;;15.15;;
16660;SDS011;8444;52.012;5.048;2023-05-07T06:40:55;22.95;;;14.50;;
16660;SDS011;8444;52.012;5.048;2023-05-07T06:43:22;19.05;;;15.13;;
16660;SDS011;8444;52.012;5.048;2023-05-07T06:45:47;18.52;;;14.20;;
16660;SDS011;8444;52.012;5.048;2023-05-07T06:48:12;21.48;;;14.90;;
16660;SDS011;8444;52.012;5.048;2023-05-07T06:50:37;18.05;;;14.15;;
16660;SDS011;8444;52.012;5.048;2023-05-07T06:53:02;18.13;;;14.52;;
16660;SDS011;8444;52.012;5.048;2023-05-07T06:55:28;17.63;;;14.45;;
16660;SDS011;8444;52.012;5.048;2023-05-07T06:57:53;20.92;;;15.48;;
16660;SDS011;8444;52.012;5.048;2023-05-07T07:00:18;19.13;;;15.10;;
16660;SDS011;8444;52.012;5.048;2023-05-07T07:02:44;20.65;;;14.55;;
16660;SDS011;8444;52.012;5.048;2023-05-07T07:05:09;17.83;;;14.43;;
16660;SDS011;8444;52.012;5.048;2023-05-07T07:07:34;18.45;;;14.65;;
16660;SDS011;8444;52.012;5.048;2023-05-07T07:10:00;19.58;;;14.43;;
16660;SDS011;8444;52.012;5.048;2023-05-07T07:12:25;19.15;;;14.20;;
16660;SDS011;8444;52.012;5.048;2023-05-07T07:14:51;19.13;;;14.35;;
16660;SDS011;8444;52.012;5.048;2023-05-07T07:17:16;19.75;;;14.60;;
16660;SDS011;8444;52.012;5.048;2023-05-07T07:19:41;18.65;;;14.30;;
16660;SDS011;8444;52.012;5.048;2023-05-07T07:22:06;21.55;;;14.43;;
16660;SDS011;8444;52.012;5.048;2023-05-07T07:24:31;19.52;;;14.18;;
16660;SDS011;8444;52.012;5.048;2023-05-07T07:26:56;18.25;;;13.32;;
16660;SDS011;8444;52.012;5.048;2023-05-07T07:29:22;18.58;;;14.95;;
16660;SDS011;8444;52.012;5.048;2023-05-07T07:31:48;18.25;;;13.98;;
16660;SDS011;8444;52.012;5.048;2023-05-07T07:34:13;16.30;;;13.98;;
16660;SDS011;8444;52.012;5.048;2023-05-07T07:36:39;19.83;;;15.02;;
16660;SDS011;8444;52.012;5.048;2023-05-07T07:39:04;19.23;;;16.13;;
16660;SDS011;8444;52.012;5.048;2023-05-07T07:41:29;20.83;;;15.18;;
16660;SDS011;8444;52.012;5.048;2023-05-07T07:43:54;18.48;;;15.00;;
16660;SDS011;8444;52.012;5.048;2023-05-07T07:46:19;18.50;;;15.10;;
16660;SDS011;8444;52.012;5.048;2023-05-07T07:48:45;18.55;;;14.27;;
16660;SDS011;8444;52.012;5.048;2023-05-07T07:51:10;17.02;;;13.02;;
16660;SDS011;8444;52.012;5.048;2023-05-07T07:53:35;16.48;;;13.07;;
16660;SDS011;8444;52.012;5.048;2023-05-07T07:56:00;17.48;;;13.23;;
16660;SDS011;8444;52.012;5.048;2023-05-07T07:58:25;14.73;;;12.65;;
16660;SDS011;8444;52.012;5.048;2023-05-07T08:00:51;22.00;;;13.75;;
16660;SDS011;8444;52.012;5.048;2023-05-07T08:03:16;15.75;;;12.82;;
16660;SDS011;8444;52.012;5.048;2023-05-07T08:05:41;17.98;;;13.80;;
16660;SDS011;8444;52.012;5.048;2023-05-07T08:08:07;18.05;;;13.73;;
16660;SDS011;8444;52.012;5.048;2023-05-07T08:10:32;13.82;;;12.13;;
16660;SDS011;8444;52.012;5.048;2023-05-07T08:12:59;15.15;;;12.23;;
16660;SDS011;8444;52.012;5.048;2023-05-07T08:15:24;15.35;;;12.80;;
16660;SDS011;8444;52.012;5.048;2023-05-07T08:17:50;14.73;;;12.32;;
16660;SDS011;8444;52.012;5.048;2023-05-07T08:20:15;15.63;;;13.07;;
16660;SDS011;8444;52.012;5.048;2023-05-07T08:22:40;13.38;;;11.07;;
16660;SDS011;8444;52.012;5.048;2023-05-07T08:25:05;16.02;;;11.93;;
16660;SDS011;8444;52.012;5.048;2023-05-07T08:27:31;16.73;;;12.25;;
16660;SDS011;8444;52.012;5.048;2023-05-07T08:29:56;12.98;;;11.13;;
16660;SDS011;8444;52.012;5.048;2023-05-07T08:32:21;13.98;;;11.93;;
16660;SDS011;8444;52.012;5.048;2023-05-07T08:34:47;13.35;;;11.40;;
16660;SDS011;8444;52.012;5.048;2023-05-07T08:37:12;17.50;;;12.25;;
16660;SDS011;8444;52.012;5.048;2023-05-07T08:39:37;15.90;;;11.45;;
16660;SDS011;8444;52.012;5.048;2023-05-07T08:42:03;16.37;;;11.40;;
16660;SDS011;8444;52.012;5.048;2023-05-07T08:44:29;13.57;;;10.35;;
16660;SDS011;8444;52.012;5.048;2023-05-07T08:46:57;12.63;;;10.77;;
16660;SDS011;8444;52.012;5.048;2023-05-07T08:49:23;15.18;;;10.73;;
16660;SDS011;8444;52.012;5.048;2023-05-07T08:51:48;13.38;;;10.43;;
16660;SDS011;8444;52.012;5.048;2023-05-07T08:54:15;13.52;;;10.23;;
16660;SDS011;8444;52.012;5.048;2023-05-07T08:56:41;13.82;;;9.50;;
16660;SDS011;8444;52.012;5.048;2023-05-07T08:59:06;11.95;;;9.00;;
16660;SDS011;8444;52.012;5.048;2023-05-07T09:01:31;10.87;;;9.00;;
16660;SDS011;8444;52.012;5.048;2023-05-07T09:03:56;11.80;;;8.57;;
16660;SDS011;8444;52.012;5.048;2023-05-07T09:06:22;9.93;;;8.20;;
16660;SDS011;8444;52.012;5.048;2023-05-07T09:08:51;16.40;;;8.27;;
16660;SDS011;8444;52.012;5.048;2023-05-07T09:11:19;10.75;;;7.65;;
16660;SDS011;8444;52.012;5.048;2023-05-07T09:13:44;8.75;;;6.57;;
16660;SDS011;8444;52.012;5.048;2023-05-07T09:16:10;10.38;;;7.32;;
16660;SDS011;8444;52.012;5.048;2023-05-07T09:18:40;8.80;;;6.25;;
16660;SDS011;8444;52.012;5.048;2023-05-07T09:21:05;7.13;;;5.97;;
16660;SDS011;8444;52.012;5.048;2023-05-07T09:23:34;9.70;;;6.68;;
16660;SDS011;8444;52.012;5.048;2023-05-07T09:25:59;6.28;;;5.45;;
16660;SDS011;8444;52.012;5.048;2023-05-07T09:28:25;7.00;;;5.68;;
16660;SDS011;8444;52.012;5.048;2023-05-07T09:30:50;7.95;;;5.50;;
16660;SDS011;8444;52.012;5.048;2023-05-07T09:33:15;7.20;;;5.70;;
16660;SDS011;8444;52.012;5.048;2023-05-07T09:35:40;5.23;;;4.70;;
16660;SDS011;8444;52.012;5.048;2023-05-07T09:38:06;5.60;;;4.80;;
16660;SDS011;8444;52.012;5.048;2023-05-07T09:40:31;6.10;;;4.07;;
16660;SDS011;8444;52.012;5.048;2023-05-07T09:42:56;6.70;;;5.32;;
16660;SDS011;8444;52.012;5.048;2023-05-07T09:45:25;7.15;;;5.22;;
16660;SDS011;8444;52.012;5.048;2023-05-07T09:47:50;6.47;;;5.20;;
16660;SDS011;8444;52.012;5.048;2023-05-07T09:50:18;7.22;;;5.95;;
16660;SDS011;8444;52.012;5.048;2023-05-07T09:52:44;9.23;;;5.10;;
16660;SDS011;8444;52.012;5.048;2023-05-07T09:55:09;8.77;;;5.07;;
16660;SDS011;8444;52.012;5.048;2023-05-07T09:57:35;6.95;;;4.90;;
16660;SDS011;8444;52.012;5.048;2023-05-07T10:00:01;7.13;;;5.43;;
16660;SDS011;8444;52.012;5.048;2023-05-07T10:02:29;5.53;;;3.83;;
16660;SDS011;8444;52.012;5.048;2023-05-07T10:04:55;4.28;;;3.10;;
16660;SDS011;8444;52.012;5.048;2023-05-07T10:07:21;5.72;;;3.28;;
16660;SDS011;8444;52.012;5.048;2023-05-07T10:09:46;6.15;;;4.10;;
16660;SDS011;8444;52.012;5.048;2023-05-07T10:12:12;7.20;;;4.85;;
16660;SDS011;8444;52.012;5.048;2023-05-07T10:14:37;5.47;;;3.85;;
16660;SDS011;8444;52.012;5.048;2023-05-07T10:17:03;6.93;;;4.35;;
16660;SDS011;8444;52.012;5.048;2023-05-07T10:19:29;4.53;;;3.90;;
16660;SDS011;8444;52.012;5.048;2023-05-07T10:21:55;4.90;;;3.83;;
16660;SDS011;8444;52.012;5.048;2023-05-07T10:24:24;4.32;;;2.95;;
16660;SDS011;8444;52.012;5.048;2023-05-07T10:26:51;5.50;;;2.20;;
16660;SDS011;8444;52.012;5.048;2023-05-07T10:31:58;7.15;;;3.67;;
16660;SDS011;8444;52.012;5.048;2023-05-07T10:34:26;5.43;;;4.80;;
16660;SDS011;8444;52.012;5.048;2023-05-07T10:36:52;4.68;;;3.78;;
16660;SDS011;8444;52.012;5.048;2023-05-07T10:39:19;5.80;;;4.25;;
16660;SDS011;8444;52.012;5.048;2023-05-07T10:41:45;7.20;;;4.95;;
16660;SDS011;8444;52.012;5.048;2023-05-07T10:44:10;6.13;;;5.53;;
16660;SDS011;8444;52.012;5.048;2023-05-07T10:46:36;6.07;;;5.47;;
16660;SDS011;8444;52.012;5.048;2023-05-07T10:51:33;7.07;;;6.38;;
16660;SDS011;8444;52.012;5.048;2023-05-07T10:56:36;7.25;;;5.82;;
16660;SDS011;8444;52.012;5.048;2023-05-07T11:04:15;7.63;;;6.25;;
16660;SDS011;8444;52.012;5.048;2023-05-07T11:06:40;8.40;;;6.05;;
16660;SDS011;8444;52.012;5.048;2023-05-07T11:09:05;5.57;;;5.07;;
16660;SDS011;8444;52.012;5.048;2023-05-07T11:14:13;6.82;;;4.68;;
16660;SDS011;8444;52.012;5.048;2023-05-07T11:16:38;7.32;;;5.38;;
16660;SDS011;8444;52.012;5.048;2023-05-07T11:19:05;5.25;;;4.32;;
16660;SDS011;8444;52.012;5.048;2023-05-07T11:21:37;10.02;;;5.78;;
16660;SDS011;8444;52.012;5.048;2023-05-07T11:24:03;6.32;;;5.72;;
16660;SDS011;8444;52.012;5.048;2023-05-07T11:26:30;5.80;;;5.20;;
16660;SDS011;8444;52.012;5.048;2023-05-07T11:28:56;7.70;;;6.32;;
16660;SDS011;8444;52.012;5.048;2023-05-07T11:31:22;7.45;;;5.93;;
16660;SDS011;8444;52.012;5.048;2023-05-07T11:33:48;7.30;;;5.85;;
16660;SDS011;8444;52.012;5.048;2023-05-07T11:36:13;9.27;;;7.10;;
16660;SDS011;8444;52.012;5.048;2023-05-07T11:38:39;7.70;;;7.00;;
16660;SDS011;8444;52.012;5.048;2023-05-07T11:41:04;8.65;;;7.25;;
16660;SDS011;8444;52.012;5.048;2023-05-07T11:43:32;7.97;;;7.13;;
16660;SDS011;8444;52.012;5.048;2023-05-07T11:46:19;9.07;;;7.43;;
16660;SDS011;8444;52.012;5.048;2023-05-07T11:48:43;6.35;;;5.53;;
16660;SDS011;8444;52.012;5.048;2023-05-07T11:51:08;7.67;;;5.77;;
16660;SDS011;8444;52.012;5.048;2023-05-07T11:53:38;9.05;;;6.28;;
16660;SDS011;8444;52.012;5.048;2023-05-07T11:56:07;5.32;;;4.63;;
16660;SDS011;8444;52.012;5.048;2023-05-07T11:58:33;6.50;;;5.70;;
16660;SDS011;8444;52.012;5.048;2023-05-07T12:00:58;6.45;;;4.93;;
16660;SDS011;8444;52.012;5.048;2023-05-07T12:03:23;5.95;;;3.97;;
16660;SDS011;8444;52.012;5.048;2023-05-07T12:05:48;4.07;;;3.37;;
16660;SDS011;8444;52.012;5.048;2023-05-07T12:08:22;4.80;;;3.50;;
16660;SDS011;8444;52.012;5.048;2023-05-07T12:10:48;6.50;;;4.30;;
16660;SDS011;8444;52.012;5.048;2023-05-07T12:13:17;12.02;;;6.65;;
16660;SDS011;8444;52.012;5.048;2023-05-07T12:15:43;8.02;;;5.13;;
16660;SDS011;8444;52.012;5.048;2023-05-07T12:18:08;6.45;;;4.10;;
16660;SDS011;8444;52.012;5.048;2023-05-07T12:20:34;5.90;;;4.40;;
16660;SDS011;8444;52.012;5.048;2023-05-07T12:22:59;4.35;;;3.78;;
16660;SDS011;8444;52.012;5.048;2023-05-07T12:25:24;3.65;;;2.78;;
16660;SDS011;8444;52.012;5.048;2023-05-07T12:27:53;4.47;;;3.75;;
16660;SDS011;8444;52.012;5.048;2023-05-07T12:30:18;7.03;;;4.35;;
16660;SDS011;8444;52.012;5.048;2023-05-07T12:32:44;6.63;;;4.07;;
16660;SDS011;8444;52.012;5.048;2023-05-07T12:35:10;4.85;;;4.20;;
16660;SDS011;8444;52.012;5.048;2023-05-07T12:37:35;5.05;;;3.97;;
16660;SDS011;8444;52.012;5.048;2023-05-07T12:40:04;4.22;;;3.65;;
16660;SDS011;8444;52.012;5.048;2023-05-07T12:42:33;6.35;;;4.07;;
16660;SDS011;8444;52.012;5.048;2023-05-07T12:45:06;4.60;;;3.50;;
16660;SDS011;8444;52.012;5.048;2023-05-07T12:47:32;5.20;;;3.75;;
16660;SDS011;8444;52.012;5.048;2023-05-07T12:49:58;3.33;;;2.90;;
16660;SDS011;8444;52.012;5.048;2023-05-07T12:52:24;7.45;;;3.60;;
16660;SDS011;8444;52.012;5.048;2023-05-07T12:54:49;6.97;;;4.03;;
16660;SDS011;8444;52.012;5.048;2023-05-07T12:57:14;6.88;;;4.53;;
16660;SDS011;8444;52.012;5.048;2023-05-07T12:59:43;4.97;;;3.65;;
16660;SDS011;8444;52.012;5.048;2023-05-07T13:02:09;5.50;;;3.77;;
16660;SDS011;8444;52.012;5.048;2023-05-07T13:04:34;5.63;;;4.03;;
16660;SDS011;8444;52.012;5.048;2023-05-07T13:07:00;7.05;;;3.58;;
16660;SDS011;8444;52.012;5.048;2023-05-07T13:09:25;5.38;;;2.55;;
16660;SDS011;8444;52.012;5.048;2023-05-07T13:11:50;5.47;;;3.47;;
16660;SDS011;8444;52.012;5.048;2023-05-07T13:14:15;3.80;;;3.38;;
16660;SDS011;8444;52.012;5.048;2023-05-07T13:16:40;3.90;;;3.50;;
16660;SDS011;8444;52.012;5.048;2023-05-07T13:19:06;3.97;;;2.88;;
16660;SDS011;8444;52.012;5.048;2023-05-07T13:21:31;4.47;;;2.43;;
16660;SDS011;8444;52.012;5.048;2023-05-07T13:23:57;4.78;;;3.67;;
16660;SDS011;8444;52.012;5.048;2023-05-07T13:26:23;3.55;;;3.17;;
16660;SDS011;8444;52.012;5.048;2023-05-07T13:28:48;4.38;;;3.20;;
16660;SDS011;8444;52.012;5.048;2023-05-07T13:31:13;4.13;;;3.53;;
16660;SDS011;8444;52.012;5.048;2023-05-07T13:33:38;3.17;;;2.43;;
16660;SDS011;8444;52.012;5.048;2023-05-07T13:36:04;5.22;;;3.17;;
16660;SDS011;8444;52.012;5.048;2023-05-07T13:38:30;5.47;;;3.38;;
16660;SDS011;8444;52.012;5.048;2023-05-07T13:40:55;6.00;;;3.83;;
16660;SDS011;8444;52.012;5.048;2023-05-07T13:43:21;6.30;;;3.37;;
16660;SDS011;8444;52.012;5.048;2023-05-07T13:45:46;4.72;;;3.80;;
16660;SDS011;8444;52.012;5.048;2023-05-07T13:48:11;5.72;;;3.97;;
16660;SDS011;8444;52.012;5.048;2023-05-07T13:50:36;3.87;;;3.43;;
16660;SDS011;8444;52.012;5.048;2023-05-07T13:53:01;5.17;;;4.00;;
16660;SDS011;8444;52.012;5.048;2023-05-07T13:55:28;4.87;;;4.30;;
16660;SDS011;8444;52.012;5.048;2023-05-07T13:57:57;7.47;;;4.30;;
16660;SDS011;8444;52.012;5.048;2023-05-07T14:00:23;6.95;;;5.03;;
16660;SDS011;8444;52.012;5.048;2023-05-07T14:02:48;5.32;;;4.43;;
16660;SDS011;8444;52.012;5.048;2023-05-07T14:05:13;7.73;;;5.10;;
16660;SDS011;8444;52.012;5.048;2023-05-07T14:07:39;6.93;;;4.70;;
16660;SDS011;8444;52.012;5.048;2023-05-07T14:10:04;4.95;;;4.43;;
16660;SDS011;8444;52.012;5.048;2023-05-07T14:12:30;7.45;;;4.57;;
16660;SDS011;8444;52.012;5.048;2023-05-07T14:14:55;4.85;;;4.35;;
16660;SDS011;8444;52.012;5.048;2023-05-07T14:17:21;9.35;;;4.60;;
16660;SDS011;8444;52.012;5.048;2023-05-07T14:19:48;4.45;;;4.07;;
16660;SDS011;8444;52.012;5.048;2023-05-07T14:22:13;3.65;;;3.03;;
16660;SDS011;8444;52.012;5.048;2023-05-07T14:24:39;5.22;;;3.05;;
16660;SDS011;8444;52.012;5.048;2023-05-07T14:27:04;8.02;;;3.28;;
16660;SDS011;8444;52.012;5.048;2023-05-07T14:29:30;8.60;;;2.90;;
16660;SDS011;8444;52.012;5.048;2023-05-07T14:31:55;5.87;;;4.00;;
16660;SDS011;8444;52.012;5.048;2023-05-07T14:34:21;6.85;;;3.97;;
16660;SDS011;8444;52.012;5.048;2023-05-07T14:36:46;6.25;;;4.28;;
16660;SDS011;8444;52.012;5.048;2023-05-07T14:39:11;4.80;;;3.40;;
16660;SDS011;8444;52.012;5.048;2023-05-07T14:41:36;7.33;;;5.20;;
16660;SDS011;8444;52.012;5.048;2023-05-07T14:44:01;7.82;;;6.57;;
16660;SDS011;8444;52.012;5.048;2023-05-07T14:46:28;8.70;;;6.88;;
16660;SDS011;8444;52.012;5.048;2023-05-07T14:48:54;8.88;;;5.70;;
16660;SDS011;8444;52.012;5.048;2023-05-07T14:51:19;8.85;;;5.32;;
16660;SDS011;8444;52.012;5.048;2023-05-07T14:53:45;7.43;;;4.07;;
16660;SDS011;8444;52.012;5.048;2023-05-07T14:56:10;5.68;;;4.82;;